createdAt,value
2022-12-27T00:01:22.010Z,2.90
2022-12-27T00:03:48.708Z,2.98
2022-12-27T00:06:18.610Z,2.89
2022-12-27T00:08:45.539Z,2.85
2022-12-27T00:11:15.240Z,2.89
2022-12-27T00:13:41.878Z,2.90
2022-12-27T00:16:11.071Z,2.83
2022-12-27T00:18:38.573Z,2.84
2022-12-27T00:21:06.312Z,2.87
2022-12-27T00:23:36.331Z,2.90
2022-12-27T00:26:09.042Z,2.88
2022-12-27T00:28:35.596Z,2.82
2022-12-27T00:31:02.744Z,2.80
2022-12-27T00:33:30.598Z,2.73
2022-12-27T00:35:59.227Z,2.77
2022-12-27T00:38:25.737Z,2.72
2022-12-27T00:40:52.083Z,2.54
2022-12-27T00:43:18.501Z,2.48
2022-12-27T00:45:45.569Z,2.40
2022-12-27T00:48:12.346Z,2.28
2022-12-27T00:50:42.990Z,2.20
2022-12-27T00:53:10.179Z,2.18
2022-12-27T00:55:36.606Z,2.17
2022-12-27T00:58:03.284Z,2.16
2022-12-27T01:00:29.742Z,2.14
2022-12-27T01:02:56.371Z,2.07
2022-12-27T01:05:23.981Z,2.07
2022-12-27T01:07:50.310Z,2.08
2022-12-27T01:10:16.750Z,2.01
2022-12-27T01:12:43.151Z,2.01
2022-12-27T01:15:09.946Z,1.98
2022-12-27T01:17:36.389Z,1.96
2022-12-27T01:20:02.973Z,1.96
2022-12-27T01:22:29.460Z,1.94
2022-12-27T01:24:55.950Z,1.85
2022-12-27T01:27:22.336Z,1.81
2022-12-27T01:29:48.700Z,1.84
2022-12-27T01:32:15.084Z,1.85
2022-12-27T01:34:41.492Z,1.82
2022-12-27T01:37:07.865Z,1.69
2022-12-27T01:39:34.230Z,1.80
2022-12-27T01:42:18.846Z,1.78
2022-12-27T01:44:51.522Z,1.77
2022-12-27T01:47:29.853Z,1.71
2022-12-27T01:50:30.592Z,1.61
2022-12-27T01:53:03.030Z,1.47
2022-12-27T01:55:43.714Z,1.34
2022-12-27T01:58:23.443Z,1.13
2022-12-27T02:00:50.536Z,1.27
2022-12-27T02:03:25.403Z,0.99
2022-12-27T02:05:51.877Z,1.08
2022-12-27T02:08:27.833Z,1.16
2022-12-27T02:10:55.600Z,1.03
2022-12-27T02:13:22.135Z,1.12
2022-12-27T02:15:48.559Z,1.03
2022-12-27T02:18:15.359Z,0.98
2022-12-27T02:21:20.250Z,1.04
2022-12-27T02:24:05.149Z,0.90
2022-12-27T02:26:44.782Z,0.79
2022-12-27T02:29:35.792Z,1.12
2022-12-27T02:32:06.937Z,1.06
2022-12-27T02:34:55.927Z,0.98
2022-12-27T02:37:25.315Z,0.86
2022-12-27T02:39:51.854Z,0.94
2022-12-27T02:42:37.877Z,0.80
2022-12-27T02:45:25.474Z,0.84
2022-12-27T02:48:10.655Z,0.63
2022-12-27T02:51:10.692Z,0.78
2022-12-27T02:53:52.409Z,0.78
2022-12-27T02:56:46.592Z,0.53
2022-12-27T03:00:05.213Z,0.68
2022-12-27T03:02:58.284Z,0.70
2022-12-27T03:05:29.947Z,0.64
2022-12-27T03:08:11.563Z,0.69
2022-12-27T03:11:18.517Z,0.64
2022-12-27T03:14:46.641Z,0.63
2022-12-27T03:17:23.527Z,0.67
2022-12-27T03:20:10.703Z,0.73
2022-12-27T03:22:56.108Z,0.79
2022-12-27T03:25:28.959Z,0.73
2022-12-27T03:28:18.617Z,0.67
2022-12-27T03:31:05.855Z,0.72
2022-12-27T03:33:33.344Z,0.67
2022-12-27T03:36:23.490Z,0.69
2022-12-27T03:38:55.728Z,0.76
2022-12-27T03:41:48.458Z,0.84
2022-12-27T03:44:24.498Z,0.91
2022-12-27T03:47:07.329Z,0.94
2022-12-27T03:49:39.092Z,1.00
2022-12-27T03:52:13.397Z,0.85
2022-12-27T03:54:41.417Z,0.82
2022-12-27T03:57:14.249Z,0.70
2022-12-27T03:59:40.708Z,0.70
2022-12-27T04:02:07.414Z,0.72
2022-12-27T04:04:33.984Z,0.60
2022-12-27T04:07:00.425Z,0.54
2022-12-27T04:09:45.880Z,0.60
2022-12-27T04:12:31.038Z,0.61
2022-12-27T04:15:15.831Z,0.55
2022-12-27T04:18:01.267Z,0.47
2022-12-27T04:20:46.012Z,0.53
2022-12-27T04:23:31.322Z,0.52
2022-12-27T04:26:16.556Z,0.54
2022-12-27T04:29:01.104Z,0.58
2022-12-27T04:31:46.442Z,0.54
2022-12-27T04:34:31.568Z,0.53
2022-12-27T04:36:57.964Z,0.48
2022-12-27T04:39:24.351Z,0.58
2022-12-27T04:42:08.991Z,0.53
2022-12-27T04:44:53.735Z,0.62
2022-12-27T04:47:40.551Z,0.74
2022-12-27T04:50:32.909Z,0.61
2022-12-27T04:53:17.821Z,0.59
2022-12-27T04:55:44.205Z,0.52
2022-12-27T04:58:10.622Z,0.68
2022-12-27T05:00:55.612Z,0.64
2022-12-27T05:03:23.261Z,0.76
2022-12-27T05:05:51.255Z,0.81
2022-12-27T05:08:37.948Z,0.82
2022-12-27T05:11:23.565Z,0.83
2022-12-27T05:14:01.845Z,0.86
2022-12-27T05:16:39.682Z,1.01
2022-12-27T05:19:08.523Z,1.22
2022-12-27T05:21:36.738Z,1.15
2022-12-27T05:24:21.675Z,1.24
2022-12-27T05:26:48.156Z,1.19
2022-12-27T05:29:14.501Z,1.16
2022-12-27T05:31:40.955Z,1.10
2022-12-27T05:34:07.393Z,1.05
2022-12-27T05:36:34.079Z,0.94
2022-12-27T05:39:00.438Z,1.04
2022-12-27T05:41:26.784Z,1.01
2022-12-27T05:43:53.116Z,0.99
2022-12-27T05:46:21.447Z,0.99
2022-12-27T05:48:48.084Z,0.87
2022-12-27T05:51:19.253Z,0.87
2022-12-27T05:53:46.120Z,0.85
2022-12-27T05:56:18.068Z,0.91
2022-12-27T05:58:44.904Z,0.80
2022-12-27T06:01:16.586Z,0.80
2022-12-27T06:03:43.291Z,0.83
2022-12-27T06:06:10.063Z,0.83
2022-12-27T06:08:37.629Z,0.83
2022-12-27T06:11:10.241Z,0.92
2022-12-27T06:13:37.430Z,0.90
2022-12-27T06:16:05.211Z,1.01
2022-12-27T06:18:33.171Z,1.05
2022-12-27T06:21:10.909Z,1.11
2022-12-27T06:23:38.979Z,1.03
2022-12-27T06:26:10.899Z,1.08
2022-12-27T06:28:37.298Z,1.11
2022-12-27T06:31:03.877Z,1.04
2022-12-27T06:33:30.807Z,1.06
2022-12-27T06:35:57.685Z,1.02
2022-12-27T06:38:24.100Z,1.03
2022-12-27T06:40:50.436Z,0.96
2022-12-27T06:43:16.768Z,0.88
2022-12-27T06:45:43.154Z,0.90
2022-12-27T06:48:09.592Z,0.93
2022-12-27T06:50:36.822Z,0.94
2022-12-27T06:53:03.327Z,0.83
2022-12-27T06:55:29.661Z,0.83
2022-12-27T06:57:56.204Z,0.71
2022-12-27T07:00:22.686Z,0.57
2022-12-27T07:02:49.136Z,0.50
2022-12-27T07:05:15.807Z,0.45
2022-12-27T07:07:42.301Z,0.39
2022-12-27T07:10:09.071Z,0.31
2022-12-27T07:12:36.945Z,0.30
2022-12-27T07:15:05.481Z,0.35
2022-12-27T07:17:31.751Z,0.30
2022-12-27T07:19:58.101Z,0.35
2022-12-27T07:22:24.481Z,0.37
2022-12-27T07:24:50.877Z,0.37
2022-12-27T07:27:17.218Z,0.38
2022-12-27T07:29:45.843Z,0.31
2022-12-27T07:32:12.367Z,0.28
2022-12-27T07:34:38.809Z,0.32
2022-12-27T07:37:05.382Z,0.29
2022-12-27T07:39:31.754Z,0.29
2022-12-27T07:42:01.886Z,0.30
2022-12-27T07:44:31.198Z,0.31
2022-12-27T07:46:57.587Z,0.32
2022-12-27T07:49:23.984Z,0.33
2022-12-27T07:51:50.371Z,0.33
2022-12-27T07:54:16.795Z,0.31
2022-12-27T07:56:43.130Z,0.33
2022-12-27T07:59:11.869Z,0.31
2022-12-27T08:02:01.644Z,0.29
2022-12-27T08:04:28.734Z,0.29
2022-12-27T08:06:57.016Z,0.30
2022-12-27T08:09:25.908Z,0.30
2022-12-27T08:11:52.266Z,0.33
2022-12-27T08:14:18.892Z,0.38
2022-12-27T08:16:45.429Z,0.33
2022-12-27T08:19:11.828Z,0.23
2022-12-27T08:21:39.054Z,0.25
2022-12-27T08:24:05.643Z,0.29
2022-12-27T08:26:32.049Z,0.37
2022-12-27T08:28:58.452Z,0.42
2022-12-27T08:31:24.830Z,0.45
2022-12-27T08:33:56.559Z,0.47
2022-12-27T08:39:12.020Z,0.67
2022-12-27T08:41:38.852Z,0.69
2022-12-27T08:44:05.476Z,0.82
2022-12-27T08:46:32.104Z,0.88
2022-12-27T08:48:58.538Z,0.91
2022-12-27T08:51:33.116Z,0.97
2022-12-27T08:54:05.218Z,1.05
2022-12-27T08:56:31.671Z,1.13
2022-12-27T08:58:58.051Z,1.24
2022-12-27T09:01:25.829Z,1.41
2022-12-27T09:03:52.441Z,1.52
2022-12-27T09:06:21.030Z,1.63
2022-12-27T09:08:48.994Z,1.69
2022-12-27T09:11:26.642Z,1.81
2022-12-27T09:13:53.166Z,1.84
2022-12-27T09:16:21.487Z,1.85
2022-12-27T09:18:51.001Z,1.88
2022-12-27T09:21:18.478Z,1.95
2022-12-27T09:23:45.423Z,2.06
2022-12-27T09:26:20.599Z,2.12
2022-12-27T09:28:48.344Z,2.22
2022-12-27T09:31:16.187Z,2.29
2022-12-27T09:33:43.130Z,2.34
2022-12-27T09:36:23.092Z,2.38
2022-12-27T09:38:51.596Z,2.49
2022-12-27T09:44:58.124Z,2.61
2022-12-27T09:47:51.472Z,2.65
2022-12-27T09:50:23.638Z,2.69
2022-12-27T09:53:06.208Z,2.88
2022-12-27T09:55:38.641Z,2.93
2022-12-27T09:58:18.759Z,3.02
2022-12-27T10:00:46.482Z,3.06
2022-12-27T10:03:13.027Z,3.08
2022-12-27T10:05:39.800Z,3.12
2022-12-27T10:08:25.308Z,3.36
2022-12-27T10:11:01.892Z,3.35
2022-12-27T10:13:51.469Z,3.35
2022-12-27T10:16:30.069Z,3.35
2022-12-27T10:19:10.086Z,3.29
2022-12-27T10:21:40.386Z,3.31
2022-12-27T10:24:19.727Z,3.40
2022-12-27T10:26:46.107Z,3.53
2022-12-27T10:29:23.842Z,3.53
2022-12-27T10:31:50.688Z,3.69
2022-12-27T10:34:23.870Z,3.96
2022-12-27T10:36:52.185Z,3.99
2022-12-27T10:39:27.520Z,3.91
2022-12-27T10:42:05.467Z,3.91
2022-12-27T10:44:31.931Z,3.99
2022-12-27T10:46:59.317Z,4.01
2022-12-27T10:49:30.276Z,4.02
2022-12-27T10:52:18.279Z,4.08
2022-12-27T10:54:52.750Z,4.11
2022-12-27T10:57:34.628Z,4.14
2022-12-27T11:00:16.552Z,4.27
2022-12-27T11:03:03.085Z,4.35
2022-12-27T11:05:31.240Z,4.37
2022-12-27T11:07:57.584Z,4.48
2022-12-27T11:10:26.667Z,4.59
2022-12-27T11:13:06.846Z,4.55
2022-12-27T11:15:40.034Z,4.63
2022-12-27T11:18:17.562Z,4.61
2022-12-27T11:20:49.414Z,4.62
2022-12-27T11:23:18.387Z,4.88
2022-12-27T11:25:56.130Z,4.98
2022-12-27T11:28:28.947Z,4.89
2022-12-27T11:31:04.432Z,4.96
2022-12-27T11:33:39.776Z,5.06
2022-12-27T11:36:08.135Z,4.92
2022-12-27T11:38:36.166Z,4.96
2022-12-27T11:41:05.152Z,4.76
2022-12-27T11:43:36.673Z,4.80
2022-12-27T11:46:06.167Z,4.76
2022-12-27T11:48:42.364Z,4.73
2022-12-27T11:51:43.345Z,4.88
2022-12-27T11:54:31.439Z,4.86
2022-12-27T11:57:27.051Z,4.95
2022-12-27T12:00:16.443Z,4.92
2022-12-27T12:03:10.636Z,5.03
2022-12-27T12:05:48.303Z,5.24
2022-12-27T12:08:21.331Z,5.37
2022-12-27T12:11:12.702Z,5.49
2022-12-27T12:13:57.743Z,5.51
2022-12-27T12:16:32.848Z,5.55
2022-12-27T12:19:08.051Z,5.63
2022-12-27T12:21:37.493Z,5.64
2022-12-27T12:24:32.531Z,5.71
2022-12-27T12:27:27.060Z,5.81
2022-12-27T12:30:27.215Z,5.71
2022-12-27T12:33:23.690Z,5.85
2022-12-27T12:36:08.826Z,5.65
2022-12-27T12:38:45.664Z,5.74
2022-12-27T12:41:43.459Z,5.55
2022-12-27T12:44:41.552Z,5.60
2022-12-27T12:47:45.748Z,5.47
2022-12-27T12:50:21.484Z,5.38
2022-12-27T12:53:00.759Z,5.31
2022-12-27T12:55:45.494Z,5.26
2022-12-27T12:58:26.954Z,5.22
2022-12-27T13:01:04.925Z,5.19
2022-12-27T13:03:31.256Z,5.20
2022-12-27T13:06:34.779Z,5.21
2022-12-27T13:09:17.858Z,5.17
2022-12-27T13:12:04.594Z,5.19
2022-12-27T13:14:41.389Z,5.17
2022-12-27T13:17:19.504Z,5.26
2022-12-27T13:20:02.092Z,5.34
2022-12-27T13:22:48.339Z,5.37
2022-12-27T13:25:17.665Z,5.40
2022-12-27T13:28:21.663Z,5.36
2022-12-27T13:31:01.811Z,5.37
2022-12-27T13:33:37.461Z,5.43
2022-12-27T13:36:31.626Z,5.49
2022-12-27T13:39:27.728Z,5.60
2022-12-27T13:41:54.114Z,5.67
2022-12-27T13:44:41.602Z,5.68
2022-12-27T13:47:29.292Z,5.72
2022-12-27T13:50:14.789Z,5.94
2022-12-27T13:52:44.172Z,6.25
2022-12-27T13:55:22.670Z,6.57
2022-12-27T13:58:28.076Z,5.75
2022-12-27T14:01:13.078Z,5.69
2022-12-27T14:04:01.171Z,5.66
2022-12-27T14:06:33.937Z,5.67
2022-12-27T14:09:10.647Z,5.73
2022-12-27T14:11:47.893Z,5.77
2022-12-27T14:14:16.410Z,5.81
2022-12-27T14:16:59.092Z,5.80
2022-12-27T14:19:50.780Z,5.71
2022-12-27T14:22:35.780Z,5.66
2022-12-27T14:25:14.157Z,5.66
2022-12-27T14:27:52.556Z,5.75
2022-12-27T14:30:21.837Z,5.74
2022-12-27T14:32:59.808Z,5.74
2022-12-27T14:36:23.732Z,5.74
2022-12-27T14:39:15.104Z,5.72
2022-12-27T14:42:20.159Z,5.67
2022-12-27T14:45:15.361Z,5.58
2022-12-27T14:48:01.298Z,5.51
2022-12-27T14:51:14.900Z,5.50
2022-12-27T14:54:06.605Z,5.42
2022-12-27T14:56:37.087Z,5.44
2022-12-27T14:59:29.692Z,5.46
2022-12-27T15:02:20.481Z,5.46
2022-12-27T15:04:56.363Z,5.45
2022-12-27T15:07:40.713Z,5.42
2022-12-27T15:10:21.874Z,5.42
2022-12-27T15:12:51.185Z,5.41
2022-12-27T15:15:41.628Z,5.38
2022-12-27T15:18:32.429Z,5.30
2022-12-27T15:21:22.822Z,5.30
2022-12-27T15:23:52.719Z,5.26
2022-12-27T15:26:40.632Z,5.23
2022-12-27T15:29:22.099Z,5.14
2022-12-27T15:32:28.320Z,5.09
2022-12-27T15:35:20.699Z,5.06
2022-12-27T15:37:46.977Z,4.99
2022-12-27T15:40:25.458Z,4.99
2022-12-27T15:43:05.564Z,4.94
2022-12-27T15:45:48.582Z,4.93
2022-12-27T15:48:26.846Z,4.91
2022-12-27T15:50:54.104Z,4.90
2022-12-27T15:53:28.736Z,4.85
2022-12-27T15:56:16.867Z,4.79
2022-12-27T15:58:43.602Z,4.76
2022-12-27T16:01:20.437Z,4.69
2022-12-27T16:03:52.511Z,4.67
2022-12-27T16:06:34.193Z,4.69
2022-12-27T16:09:25.428Z,4.68
2022-12-27T16:12:07.056Z,4.67
2022-12-27T16:14:38.577Z,4.63
2022-12-27T16:17:31.415Z,4.59
2022-12-27T16:20:16.538Z,4.54
2022-12-27T16:22:54.653Z,4.47
2022-12-27T16:25:31.170Z,4.43
2022-12-27T16:28:01.106Z,4.42
2022-12-27T16:30:44.302Z,4.40
2022-12-27T16:33:25.999Z,4.38
2022-12-27T16:36:29.966Z,4.32
2022-12-27T16:38:59.159Z,4.34
2022-12-27T16:41:25.393Z,4.32
2022-12-27T16:44:03.975Z,4.31
2022-12-27T16:46:30.256Z,4.32
2022-12-27T16:49:23.699Z,4.28
2022-12-27T16:52:27.885Z,4.20
2022-12-27T16:55:11.735Z,4.10
2022-12-27T16:57:43.069Z,4.02
2022-12-27T17:00:21.603Z,3.96
2022-12-27T17:02:48.054Z,3.91
2022-12-27T17:05:14.282Z,3.88
2022-12-27T17:07:52.469Z,3.84
2022-12-27T17:10:25.042Z,3.79
2022-12-27T17:12:59.209Z,3.77
2022-12-27T17:15:25.999Z,3.72
2022-12-27T17:17:55.140Z,3.72
2022-12-27T17:20:21.909Z,3.72
2022-12-27T17:22:50.324Z,3.70
2022-12-27T17:25:22.727Z,3.68
2022-12-27T17:28:09.643Z,3.74
2022-12-27T17:30:54.638Z,3.74
2022-12-27T17:33:20.891Z,3.73
2022-12-27T17:36:05.996Z,3.73
2022-12-27T17:38:51.321Z,3.73
2022-12-27T17:41:57.906Z,3.75
2022-12-27T17:44:40.035Z,3.67
2022-12-27T17:47:26.928Z,3.74
2022-12-27T17:49:53.736Z,3.70
2022-12-27T17:52:43.570Z,3.72
2022-12-27T17:55:35.856Z,3.71
2022-12-27T17:58:06.130Z,3.69
2022-12-27T18:00:38.470Z,3.71
2022-12-27T18:03:08.200Z,3.67
2022-12-27T18:05:39.407Z,3.70
2022-12-27T18:08:08.064Z,3.65
2022-12-27T18:10:36.435Z,3.69
2022-12-27T18:13:05.389Z,3.70
2022-12-27T18:15:34.534Z,3.74
2022-12-27T18:18:06.386Z,3.67
2022-12-27T18:20:40.481Z,3.72
2022-12-27T18:23:08.734Z,3.69
2022-12-27T18:25:40.312Z,3.71
2022-12-27T18:28:15.479Z,3.77
2022-12-27T18:30:50.139Z,3.77
2022-12-27T18:33:17.270Z,3.76
2022-12-27T18:35:46.930Z,3.78
2022-12-27T18:38:18.334Z,3.79
2022-12-27T18:40:58.063Z,3.76
2022-12-27T18:43:24.562Z,3.77
2022-12-27T18:45:54.736Z,3.77
2022-12-27T18:48:22.031Z,3.89
2022-12-27T18:50:51.980Z,3.91
2022-12-27T18:53:36.003Z,3.88
2022-12-27T18:56:24.696Z,3.81
2022-12-27T18:59:28.878Z,3.68
2022-12-27T19:01:57.755Z,3.64
2022-12-27T19:04:29.956Z,3.69
2022-12-27T19:07:12.899Z,3.83
2022-12-27T19:09:42.412Z,3.72
2022-12-27T19:12:34.150Z,3.82
2022-12-27T19:15:01.508Z,3.66
2022-12-27T19:17:30.452Z,3.59
2022-12-27T19:20:05.301Z,3.71
2022-12-27T19:22:34.423Z,3.61
2022-12-27T19:25:04.469Z,3.50
2022-12-27T19:27:30.830Z,3.44
2022-12-27T19:29:57.324Z,3.37
2022-12-27T19:32:33.238Z,3.37
2022-12-27T19:35:01.844Z,3.28
2022-12-27T19:37:29.933Z,3.31
2022-12-27T19:39:56.349Z,3.29
2022-12-27T19:42:29.190Z,3.27
2022-12-27T19:44:55.676Z,3.20
2022-12-27T19:47:22.378Z,3.16
2022-12-27T19:49:50.319Z,3.26
2022-12-27T19:52:27.065Z,3.32
2022-12-27T19:55:00.585Z,3.28
2022-12-27T19:57:26.984Z,3.24
2022-12-27T19:59:53.353Z,3.26
2022-12-27T20:02:21.151Z,3.25
2022-12-27T20:04:55.931Z,3.34
2022-12-27T20:07:24.429Z,3.38
2022-12-27T20:09:51.180Z,3.41
2022-12-27T20:12:17.552Z,3.37
2022-12-27T20:14:43.914Z,3.34
2022-12-27T20:17:10.326Z,3.35
2022-12-27T20:19:36.755Z,3.40
2022-12-27T20:22:03.141Z,3.44
2022-12-27T20:24:31.426Z,3.58
2022-12-27T20:26:57.941Z,3.57
2022-12-27T20:29:24.360Z,3.65
2022-12-27T20:31:52.219Z,3.71
2022-12-27T20:34:18.758Z,3.72
2022-12-27T20:36:45.222Z,3.75
2022-12-27T20:39:11.589Z,3.81
2022-12-27T20:41:38.081Z,3.88
2022-12-27T20:44:05.043Z,3.89
2022-12-27T20:46:31.444Z,3.93
2022-12-27T20:48:57.871Z,3.91
2022-12-27T20:51:27.248Z,3.90
2022-12-27T20:53:57.607Z,3.87
2022-12-27T20:56:24.200Z,3.81
2022-12-27T20:58:50.901Z,3.83
2022-12-27T21:01:19.825Z,3.82
2022-12-27T21:03:46.531Z,3.81
2022-12-27T21:06:18.513Z,3.82
2022-12-27T21:08:49.098Z,3.78
2022-12-27T21:11:23.331Z,3.77
2022-12-27T21:13:50.143Z,3.74
2022-12-27T21:16:22.140Z,3.75
2022-12-27T21:18:49.193Z,3.74
2022-12-27T21:21:19.817Z,3.71
2022-12-27T21:23:47.040Z,3.71
2022-12-27T21:26:19.183Z,3.69
2022-12-27T21:28:45.842Z,3.67
2022-12-27T21:31:12.863Z,3.62
2022-12-27T21:33:39.470Z,3.60
2022-12-27T21:36:08.909Z,3.61
2022-12-27T21:38:35.708Z,3.63
2022-12-27T21:41:05.733Z,3.61
2022-12-27T21:43:33.828Z,3.58
2022-12-27T21:46:08.395Z,3.56
2022-12-27T21:48:35.976Z,3.53
2022-12-27T21:51:08.074Z,3.53
2022-12-27T21:53:34.644Z,3.51
2022-12-27T21:56:01.117Z,3.48
2022-12-27T21:58:30.477Z,3.44
2022-12-27T22:01:27.448Z,3.35
2022-12-27T22:03:54.882Z,3.34
2022-12-27T22:06:24.302Z,3.37
2022-12-27T22:08:53.340Z,3.33
2022-12-27T22:11:21.181Z,3.30
2022-12-27T22:13:47.697Z,3.31
2022-12-27T22:16:27.742Z,3.27
2022-12-27T22:18:55.980Z,3.25
2022-12-27T22:21:27.980Z,3.17
2022-12-27T22:23:56.674Z,3.14
2022-12-27T22:26:28.394Z,3.13
2022-12-27T22:28:55.095Z,3.07
2022-12-27T22:31:27.019Z,3.08
2022-12-27T22:33:54.142Z,3.07
2022-12-27T22:36:23.275Z,3.01
2022-12-27T22:38:50.751Z,3.03
2022-12-27T22:41:26.263Z,3.00
2022-12-27T22:44:13.861Z,2.99
2022-12-27T22:49:27.706Z,2.98
2022-12-27T22:51:54.069Z,2.96
2022-12-27T22:54:20.396Z,2.89
2022-12-27T22:57:06.699Z,2.87
2022-12-27T22:59:33.126Z,2.87
2022-12-27T23:01:59.554Z,2.88
2022-12-27T23:04:26.051Z,2.87
2022-12-27T23:06:52.508Z,2.85
2022-12-27T23:09:18.934Z,2.83
2022-12-27T23:11:45.333Z,2.77
2022-12-27T23:14:13.930Z,2.81
2022-12-27T23:16:45.347Z,2.78
2022-12-27T23:19:12.668Z,2.74
2022-12-27T23:21:39.026Z,2.73
2022-12-27T23:24:05.924Z,2.68
2022-12-27T23:26:32.493Z,2.69
2022-12-27T23:28:59.132Z,2.59
2022-12-27T23:31:26.009Z,2.52
2022-12-27T23:33:52.628Z,2.50
2022-12-27T23:36:19.472Z,2.42
2022-12-27T23:38:45.961Z,2.37
2022-12-27T23:41:18.059Z,2.33
2022-12-27T23:43:54.359Z,2.28
2022-12-27T23:46:27.483Z,2.23
2022-12-27T23:48:54.968Z,2.17
2022-12-27T23:51:21.829Z,2.12
2022-12-27T23:53:48.230Z,2.10
2022-12-27T23:56:22.776Z,2.07
2022-12-27T23:58:49.507Z,2.10
